Terminal Aerodrome Forecast
Issued by NWS Louisville, KY

Home | Current Version | Previous Version | Text Only | Print | Product List | Glossary On
Versions: 1 2 3 4 5 6 7 8 9 10 11 12 13 14 15 16
000
FTUS43 KLMK 210100 AAA
TAFLEX
TAF AMD
KLEX 210118Z 2101/2124 03009KT P6SM VCSH FEW040 BKN090
     FM210600 02006KT 6SM -SHRA BR BKN025
     FM210800 36006KT 6SM BR BKN015
     FM211300 34006KT P6SM BKN015
     FM212000 32007KT P6SM BKN022=

USA.gov is the U.S. government's official web portal to all federal, state and local government web resources and services.